Hauptseite
METAR-TAF:

METAR-TAF

Flughäfen :

Hohenfels, Deutschland

Breite: 49-13N, Länge: 011-50E, Höhe: 442 m

Beobachtung

Neuester Wetterbericht von vor 40 Minuten, um 18:56 UTC
Wind 4 kt aus West
Temperatur 17°C
Luftfeuchtigkeit 77%
Luftdruck 1020 hPa
Sichtweite 10 km oder mehr
Himmel klar

METAR: ETIH 051856Z AUTO 26004KT 9999 CLR 17/13 A3013 RMK AO2 SLP201 T01670126

Zeit: 21:36 (19:36 UTC)


TAF: fehlend

Wetterbeobachtungen und Prognosen von mehr als 4000 Flughäfen (METAR und TAF Bericht).

Die verfügbaren Stationen werden durch gelbe und rote Markierungen auf der Karte dargestellt.

Führen Sie die Maus auf sie, um den Namen der Station zu sehen.

Darauf klicken, um die Beobachtung von Wetterbeobachtungen und Prognosen zu sehen.

Um die Karte zu ändern : klicken Sie auf den grünen Tasten mit einem schwarzen Kreuz Zum Vergrößern, auf den grünen Button mit einem Gedankenstrich zu verkleinern, oder auf die grünen Pfeile für benachbarte Karten.


METAR-TAF: